Time;durP1;ratioP1;P1;durP2;ratioP2;P2;SDS_P1;SDS_P2;PMS_P1;PMS_P2;Temp;Humidity;BMP_temperature;BMP_pressure;BME280_temperature;BME280_humidity;BME280_pressure;Samples;Min_cycle;Max_cycle;Signal;HPM_P1;HPM_P2
2022/10/25 00:00:28;;;;;;;7.43;2.75;;;10.40;99.90;;;;;;5091603;28;20107;-59
2022/10/25 00:02:54;;;;;;;6.35;2.58;;;10.40;99.90;;;;;;5092007;28;20081;-60
2022/10/25 00:05:20;;;;;;;7.82;2.80;;;10.40;99.90;;;;;;5091956;28;20095;-59
2022/10/25 00:07:46;;;;;;;6.22;2.80;;;10.40;99.90;;;;;;5092425;28;20076;-59
2022/10/25 00:10:11;;;;;;;6.00;2.65;;;10.30;99.90;;;;;;5091808;28;20173;-59
2022/10/25 00:12:42;;;;;;;6.40;2.50;;;10.30;99.90;;;;;;5091752;28;20032;-59
2022/10/25 00:15:09;;;;;;;4.90;2.72;;;10.20;99.90;;;;;;5091550;28;20050;-59
2022/10/25 00:17:35;;;;;;;6.57;3.00;;;10.20;99.90;;;;;;5091640;28;20042;-59
2022/10/25 00:20:01;;;;;;;6.65;2.70;;;10.20;99.90;;;;;;5092294;28;20016;-59
2022/10/25 00:22:29;;;;;;;8.10;2.65;;;10.20;99.90;;;;;;5091710;28;20394;-59
2022/10/25 00:24:55;;;;;;;5.63;2.85;;;10.20;99.90;;;;;;5090554;28;20398;-59
2022/10/25 00:27:21;;;;;;;4.82;2.53;;;10.20;99.90;;;;;;5091827;28;20028;-59
2022/10/25 00:29:46;;;;;;;5.30;2.70;;;10.20;99.90;;;;;;5091523;28;20027;-59
2022/10/25 00:32:12;;;;;;;8.93;3.22;;;10.20;99.90;;;;;;5091956;28;20036;-60
2022/10/25 00:34:40;;;;;;;7.85;2.38;;;10.20;99.90;;;;;;5091340;28;20532;-59
2022/10/25 00:37:06;;;;;;;10.10;2.80;;;10.30;99.90;;;;;;5091759;28;20036;-59
2022/10/25 00:39:32;;;;;;;5.70;2.70;;;10.30;99.90;;;;;;5091395;28;20094;-59
2022/10/25 00:41:57;;;;;;;8.25;2.72;;;10.30;99.90;;;;;;5091495;28;20020;-59
2022/10/25 00:44:35;;;;;;;8.00;2.70;;;10.30;99.90;;;;;;5091701;28;20035;-59
2022/10/25 00:47:09;;;;;;;6.90;2.58;;;10.20;99.90;;;;;;5091637;28;20433;-59
2022/10/25 00:49:35;;;;;;;;;;;10.10;99.90;;;;;;5091989;28;20028;-59
2022/10/25 00:52:03;;;;;;;5.45;2.60;;;10.10;99.90;;;;;;5091564;28;20097;-59
2022/10/25 00:54:33;;;;;;;6.43;2.80;;;10.10;99.90;;;;;;5091427;28;20031;-60
2022/10/25 00:57:04;;;;;;;6.22;3.22;;;10.10;99.90;;;;;;5093107;28;20099;-59
2022/10/25 00:59:31;;;;;;;5.20;2.90;;;10.10;99.90;;;;;;5095013;28;20024;-59
2022/10/25 01:01:57;;;;;;;5.18;2.50;;;10.30;99.90;;;;;;5095152;28;20490;-59
2022/10/25 01:04:26;;;;;;;5.65;2.97;;;10.40;99.90;;;;;;5095708;28;20035;-59
2022/10/25 01:06:53;;;;;;;6.13;2.78;;;10.50;99.90;;;;;;5095087;28;20043;-59
2022/10/25 01:09:25;;;;;;;6.72;2.50;;;10.60;99.90;;;;;;5095010;28;20103;-59
2022/10/25 01:11:51;;;;;;;7.55;2.90;;;10.60;99.90;;;;;;5094693;28;20043;-59
2022/10/25 01:14:18;;;;;;;8.15;2.58;;;10.60;99.90;;;;;;5095041;28;20104;-59
2022/10/25 01:17:03;;;;;;;8.32;2.60;;;10.70;99.90;;;;;;5094942;28;20035;-59
2022/10/25 01:19:50;;;;;;;7.70;2.42;;;10.90;99.90;;;;;;5094822;28;20027;-60
2022/10/25 01:22:36;;;;;;;8.88;2.45;;;11.00;99.90;;;;;;5094851;28;20016;-60
2022/10/25 01:25:02;;;;;;;5.43;2.28;;;11.00;99.90;;;;;;5094854;28;20055;-60
2022/10/25 01:27:58;;;;;;;6.18;2.38;;;11.00;99.90;;;;;;5094321;28;20016;-60
2022/10/25 01:30:46;;;;;;;4.50;2.10;;;11.20;99.90;;;;;;5094734;28;20035;-59
2022/10/25 01:33:33;;;;;;;5.55;1.73;;;11.40;99.90;;;;;;5094793;28;20036;-59
2022/10/25 01:36:30;;;;;;;5.50;1.95;;;11.40;99.90;;;;;;5094625;28;20085;-59
2022/10/25 01:39:17;;;;;;;5.32;1.90;;;11.90;99.90;;;;;;5112283;28;20119;-59
2022/10/25 01:41:52;;;;;;;4.15;1.70;;;12.20;99.90;;;;;;5112105;28;20032;-59
2022/10/25 01:44:59;;;;;;;3.42;1.50;;;12.50;99.90;;;;;;5112516;28;20036;-59
2022/10/25 01:47:32;;;;;;;5.10;1.80;;;12.60;99.90;;;;;;5031845;28;20076;-59
2022/10/25 01:50:01;;;;;;;7.50;2.10;;;12.60;99.90;;;;;;5031827;28;20498;-59
2022/10/25 01:52:27;;;;;;;4.63;1.60;;;12.70;99.90;;;;;;5031752;28;20037;-60
2022/10/25 01:54:53;;;;;;;5.10;1.60;;;12.80;99.90;;;;;;5031655;28;20029;-59
2022/10/25 01:57:33;;;;;;;4.25;1.55;;;12.80;99.90;;;;;;5031323;28;20061;-60
2022/10/25 02:00:01;;;;;;;3.63;1.48;;;12.80;99.90;;;;;;5031725;28;20401;-60
2022/10/25 02:02:30;;;;;;;5.53;1.48;;;12.80;99.90;;;;;;5031921;28;20044;-59
2022/10/25 02:05:34;;;;;;;2.85;1.40;;;12.90;99.90;;;;;;5031887;28;20040;-60
2022/10/25 02:08:06;;;;;;;5.40;1.40;;;12.90;99.90;;;;;;4972038;28;20090;-60
2022/10/25 02:10:40;;;;;;;4.60;1.45;;;12.90;99.90;;;;;;4971863;28;20564;-60
2022/10/25 02:13:19;;;;;;;3.53;1.20;;;12.90;99.90;;;;;;4972682;28;20433;-59
2022/10/25 02:16:03;;;;;;;4.50;1.23;;;13.10;99.90;;;;;;4963113;28;20635;-60
2022/10/25 02:18:33;;;;;;;3.00;1.10;;;13.00;99.90;;;;;;4953357;29;20051;-60
2022/10/25 02:21:01;;;;;;;4.10;1.33;;;13.00;99.90;;;;;;4953303;29;20046;-60
2022/10/25 02:23:28;;;;;;;4.03;1.35;;;12.90;99.90;;;;;;5011658;28;20475;-59
2022/10/25 02:25:54;;;;;;;4.28;1.40;;;12.90;99.90;;;;;;5031176;28;20518;-59
2022/10/25 02:28:23;;;;;;;3.65;1.73;;;12.90;99.90;;;;;;5031273;28;20117;-59
2022/10/25 02:30:51;;;;;;;2.95;1.30;;;12.90;99.90;;;;;;5031433;28;20038;-59
2022/10/25 02:33:17;;;;;;;3.65;1.23;;;12.90;99.90;;;;;;5031139;28;20037;-59
2022/10/25 02:35:42;;;;;;;4.82;1.55;;;13.00;99.90;;;;;;5028601;28;20040;-59
2022/10/25 02:38:08;;;;;;;3.15;1.20;;;13.00;99.90;;;;;;5031024;28;20038;-59
2022/10/25 02:40:35;;;;;;;3.97;1.50;;;13.00;99.90;;;;;;5030609;28;20049;-59
2022/10/25 02:43:01;;;;;;;3.42;1.42;;;12.90;99.90;;;;;;5030882;28;20024;-60
2022/10/25 02:45:26;;;;;;;4.07;1.40;;;12.90;99.90;;;;;;5084503;28;20036;-59
2022/10/25 02:47:52;;;;;;;3.20;1.58;;;12.80;99.90;;;;;;5093627;28;20042;-59
2022/10/25 02:50:18;;;;;;;4.10;1.30;;;12.90;99.90;;;;;;5093186;28;20081;-59
2022/10/25 02:52:44;;;;;;;3.83;1.23;;;12.90;99.90;;;;;;5092701;28;20024;-59
2022/10/25 02:55:10;;;;;;;4.53;1.40;;;12.90;99.90;;;;;;5092876;28;20028;-59
2022/10/25 02:57:36;;;;;;;4.07;1.50;;;12.80;99.90;;;;;;5093093;28;20035;-59
2022/10/25 03:00:05;;;;;;;5.63;1.40;;;12.80;99.90;;;;;;5093040;28;20028;-59
2022/10/25 03:02:30;;;;;;;3.83;1.45;;;12.80;99.90;;;;;;5092847;28;20048;-59
2022/10/25 03:04:56;;;;;;;4.22;1.35;;;12.90;99.90;;;;;;5093257;28;20054;-59
2022/10/25 03:07:21;;;;;;;2.33;1.20;;;13.00;99.90;;;;;;5092812;28;20028;-59
2022/10/25 03:09:47;;;;;;;4.60;1.20;;;12.90;99.90;;;;;;5092498;28;20030;-59
2022/10/25 03:12:13;;;;;;;4.53;1.30;;;12.90;99.90;;;;;;5092992;28;20038;-59
2022/10/25 03:14:38;;;;;;;4.40;1.35;;;12.80;99.90;;;;;;5092661;28;20024;-59
2022/10/25 03:17:05;;;;;;;5.13;1.42;;;12.80;99.90;;;;;;5092534;28;20062;-59
2022/10/25 03:19:30;;;;;;;3.60;1.48;;;13.00;99.90;;;;;;5092344;28;20035;-59
2022/10/25 03:21:56;;;;;;;3.80;1.30;;;13.00;99.90;;;;;;5092498;28;20494;-59
2022/10/25 03:24:22;;;;;;;4.43;1.25;;;13.10;99.90;;;;;;5092201;28;20031;-59
2022/10/25 03:26:48;;;;;;;3.85;1.17;;;13.10;99.90;;;;;;5092450;28;20178;-59
2022/10/25 03:29:13;;;;;;;3.63;1.33;;;13.10;99.90;;;;;;5092770;28;20545;-59
2022/10/25 03:31:39;;;;;;;4.63;1.35;;;13.10;99.90;;;;;;5092459;28;20038;-59
2022/10/25 03:34:04;;;;;;;3.05;1.23;;;13.10;99.90;;;;;;5092268;28;20483;-59
2022/10/25 03:36:30;;;;;;;3.38;1.20;;;13.10;99.90;;;;;;5092224;28;20030;-59
2022/10/25 03:38:56;;;;;;;3.50;1.40;;;13.10;99.90;;;;;;5091810;28;20052;-59
2022/10/25 03:41:21;;;;;;;3.38;1.33;;;13.10;99.90;;;;;;5092632;28;20020;-59
2022/10/25 03:43:47;;;;;;;3.70;1.15;;;13.10;99.90;;;;;;5092218;28;20028;-59
2022/10/25 03:46:13;;;;;;;3.78;1.38;;;13.10;99.90;;;;;;5092235;28;20024;-59
2022/10/25 03:48:38;;;;;;;3.85;1.50;;;13.00;99.90;;;;;;5092059;28;20063;-59
2022/10/25 03:51:04;;;;;;;3.05;1.40;;;12.90;99.90;;;;;;5092405;28;20073;-59
2022/10/25 03:53:31;;;;;;;6.18;1.45;;;12.90;99.90;;;;;;5091946;28;20039;-59
2022/10/25 03:55:56;;;;;;;4.28;1.50;;;12.80;99.90;;;;;;5092049;28;20024;-59
2022/10/25 03:58:22;;;;;;;4.07;1.15;;;12.80;99.90;;;;;;5092218;28;20111;-59
2022/10/25 04:00:48;;;;;;;2.50;1.20;;;12.80;99.90;;;;;;5092023;28;20077;-59
2022/10/25 04:03:13;;;;;;;3.58;1.30;;;12.70;99.90;;;;;;5092226;28;20398;-59
2022/10/25 04:05:39;;;;;;;4.88;1.27;;;12.60;99.90;;;;;;5091889;28;20099;-59
2022/10/25 04:08:05;;;;;;;6.07;1.70;;;12.60;99.90;;;;;;5091634;28;20092;-59
2022/10/25 04:10:30;;;;;;;7.53;1.48;;;12.70;99.90;;;;;;5092057;28;20025;-59
2022/10/25 04:12:56;;;;;;;3.47;1.40;;;12.70;99.90;;;;;;5091967;28;20043;-59
2022/10/25 04:15:23;;;;;;;3.67;1.58;;;12.80;99.90;;;;;;5092493;28;20073;-59
2022/10/25 04:17:50;;;;;;;3.13;1.42;;;12.80;99.90;;;;;;5092070;28;20486;-59
2022/10/25 04:20:16;;;;;;;5.53;1.45;;;12.90;99.90;;;;;;5091915;28;20070;-59
2022/10/25 04:22:41;;;;;;;4.63;1.52;;;12.90;99.90;;;;;;5091557;28;20402;-59
2022/10/25 04:25:07;;;;;;;3.40;1.17;;;12.80;99.90;;;;;;5092030;28;20020;-59
2022/10/25 04:27:33;;;;;;;1.98;1.10;;;12.90;99.90;;;;;;5091799;28;20028;-59
2022/10/25 04:29:59;;;;;;;5.20;1.55;;;12.90;99.90;;;;;;5092222;28;20103;-59
2022/10/25 04:32:24;;;;;;;3.97;1.48;;;12.90;99.90;;;;;;5093721;28;20040;-59
2022/10/25 04:34:50;;;;;;;3.40;1.25;;;12.90;99.90;;;;;;5094104;28;20088;-59
2022/10/25 04:37:16;;;;;;;3.65;1.58;;;12.90;99.90;;;;;;5095774;28;20032;-60
2022/10/25 04:39:41;;;;;;;4.90;1.70;;;12.90;99.90;;;;;;5095581;28;20047;-59
2022/10/25 04:42:07;;;;;;;4.85;1.65;;;12.90;99.90;;;;;;5095640;28;20032;-59
2022/10/25 04:44:33;;;;;;;3.88;1.42;;;12.90;99.90;;;;;;5095603;28;20030;-60
2022/10/25 04:46:58;;;;;;;5.68;1.80;;;12.90;99.90;;;;;;5095348;28;20081;-59
2022/10/25 04:49:24;;;;;;;3.53;1.55;;;13.00;99.90;;;;;;5095177;28;20024;-59
2022/10/25 04:51:50;;;;;;;4.53;1.50;;;13.00;99.90;;;;;;5095344;28;20479;-58
2022/10/25 04:54:15;;;;;;;3.90;1.63;;;13.00;99.90;;;;;;5094663;28;20039;-58
2022/10/25 04:56:41;;;;;;;4.53;1.35;;;13.00;99.90;;;;;;5095340;28;20031;-59
2022/10/25 04:59:08;;;;;;;3.17;1.40;;;13.00;99.90;;;;;;5095614;28;20020;-59
2022/10/25 05:01:34;;;;;;;2.85;1.30;;;13.10;99.90;;;;;;5095508;28;20492;-59
2022/10/25 05:03:59;;;;;;;4.38;1.30;;;13.10;99.90;;;;;;5095644;28;20032;-59
2022/10/25 05:06:26;;;;;;;5.85;1.77;;;13.20;99.90;;;;;;5095076;28;20063;-58
2022/10/25 05:08:53;;;;;;;3.97;1.30;;;13.30;99.90;;;;;;5095151;28;20024;-58
2022/10/25 05:11:21;;;;;;;3.40;1.27;;;13.20;99.90;;;;;;5095508;28;20103;-58
2022/10/25 05:13:46;;;;;;;6.38;1.40;;;13.20;99.90;;;;;;5095236;28;20020;-59
2022/10/25 05:16:23;;;;;;;3.45;1.30;;;13.30;99.90;;;;;;5095263;28;20161;-58
2022/10/25 05:18:53;;;;;;;5.03;1.33;;;13.40;99.90;;;;;;5094779;28;20021;-59
2022/10/25 05:21:19;;;;;;;4.80;1.70;;;13.30;99.90;;;;;;5094899;28;20036;-59
2022/10/25 05:23:45;;;;;;;6.32;1.73;;;13.40;99.90;;;;;;5094879;28;20051;-58
2022/10/25 05:26:14;;;;;;;3.95;1.30;;;13.40;99.90;;;;;;5094950;28;20024;-59
2022/10/25 05:28:41;;;;;;;2.97;1.30;;;13.60;99.90;;;;;;5094872;28;20023;-59
2022/10/25 05:31:19;;;;;;;3.97;1.30;;;13.70;99.90;;;;;;5094558;28;20020;-59
2022/10/25 05:33:47;;;;;;;3.97;1.30;;;13.60;99.90;;;;;;5094249;28;20036;-59
2022/10/25 05:36:13;;;;;;;3.85;1.73;;;13.70;99.90;;;;;;5094653;28;20099;-59
2022/10/25 05:38:39;;;;;;;5.25;1.42;;;13.60;99.90;;;;;;5094434;28;20032;-59
2022/10/25 05:41:06;;;;;;;4.72;1.55;;;13.60;99.90;;;;;;5094606;28;20036;-59
2022/10/25 05:43:32;;;;;;;4.88;1.40;;;13.70;99.90;;;;;;5093223;28;20073;-59
2022/10/25 05:46:18;;;;;;;4.68;1.40;;;13.70;99.90;;;;;;5094614;28;20028;-60
2022/10/25 05:48:45;;;;;;;4.10;1.23;;;13.70;99.90;;;;;;5094268;28;20070;-59
2022/10/25 05:51:16;;;;;;;3.28;1.40;;;13.70;99.90;;;;;;5094678;28;20031;-59
2022/10/25 05:53:46;;;;;;;3.90;1.30;;;13.80;99.90;;;;;;5094584;28;20470;-59
2022/10/25 05:56:13;;;;;;;5.85;1.40;;;13.80;99.90;;;;;;5094265;28;20020;-59
2022/10/25 05:58:40;;;;;;;3.97;1.63;;;13.80;99.90;;;;;;5094143;28;20551;-59
2022/10/25 06:01:07;;;;;;;4.20;1.50;;;13.80;99.90;;;;;;5094656;28;20066;-60
2022/10/25 06:03:33;;;;;;;3.22;1.33;;;13.80;99.90;;;;;;5093780;28;20028;-59
2022/10/25 06:06:00;;;;;;;4.07;1.50;;;13.80;99.90;;;;;;5094111;28;20539;-59
2022/10/25 06:08:27;;;;;;;3.40;1.40;;;13.70;99.90;;;;;;5094194;28;20032;-60
2022/10/25 06:10:52;;;;;;;6.97;1.95;;;13.70;99.90;;;;;;5094197;28;20432;-60
2022/10/25 06:13:18;;;;;;;4.07;1.23;;;13.80;99.90;;;;;;5094239;28;20153;-59
2022/10/25 06:15:44;;;;;;;3.78;1.30;;;13.80;99.90;;;;;;5094025;28;20037;-59
2022/10/25 06:18:09;;;;;;;4.07;1.27;;;13.80;99.90;;;;;;5093488;28;20035;-59
2022/10/25 06:20:35;;;;;;;5.60;1.67;;;13.80;99.90;;;;;;5093786;28;20111;-60
2022/10/25 06:23:01;;;;;;;3.47;1.65;;;13.80;99.90;;;;;;5094210;28;20024;-60
2022/10/25 06:25:26;;;;;;;4.47;1.50;;;13.80;99.90;;;;;;5093964;28;20027;-59
2022/10/25 06:27:52;;;;;;;4.53;1.40;;;13.80;99.90;;;;;;5093728;28;20024;-59
2022/10/25 06:30:18;;;;;;;4.57;1.38;;;13.90;99.90;;;;;;5092476;28;20382;-59
2022/10/25 06:32:43;;;;;;;3.88;1.48;;;13.90;99.90;;;;;;5093615;28;20028;-59
2022/10/25 06:35:09;;;;;;;4.60;1.50;;;13.90;99.90;;;;;;5093433;28;20421;-60
2022/10/25 06:37:34;;;;;;;3.55;1.52;;;14.00;99.90;;;;;;5093574;28;20028;-59
2022/10/25 06:40:00;;;;;;;6.57;1.50;;;14.00;99.90;;;;;;5093369;28;20054;-59
2022/10/25 06:42:26;;;;;;;8.05;1.75;;;14.00;99.90;;;;;;5093523;28;20063;-59
2022/10/25 06:44:51;;;;;;;4.03;1.65;;;14.00;99.90;;;;;;5092466;28;20088;-59
2022/10/25 06:47:17;;;;;;;5.05;1.70;;;14.10;99.90;;;;;;5092814;28;20032;-60
2022/10/25 06:49:43;;;;;;;2.92;1.50;;;14.10;99.90;;;;;;5093477;28;20382;-59
2022/10/25 06:52:08;;;;;;;6.95;2.63;;;14.10;99.90;;;;;;5093157;28;20036;-59
2022/10/25 06:54:34;;;;;;;4.22;1.42;;;14.00;99.90;;;;;;5093102;28;20056;-59
2022/10/25 06:57:00;;;;;;;3.63;1.52;;;14.10;99.90;;;;;;5093149;28;20058;-60
2022/10/25 06:59:26;;;;;;;4.35;1.50;;;14.20;99.90;;;;;;5093240;28;20439;-59
2022/10/25 07:01:52;;;;;;;3.60;1.50;;;14.30;99.90;;;;;;5092694;28;20386;-60
2022/10/25 07:04:18;;;;;;;5.30;1.50;;;14.30;99.90;;;;;;5092970;28;20052;-59
2022/10/25 07:06:44;;;;;;;3.88;1.50;;;14.40;99.90;;;;;;5093011;28;20048;-60
2022/10/25 07:09:11;;;;;;;4.57;1.52;;;14.40;99.90;;;;;;5092179;28;20028;-60
2022/10/25 07:11:38;;;;;;;4.63;1.45;;;14.50;99.90;;;;;;5091615;28;20055;-59
2022/10/25 07:14:04;;;;;;;5.93;1.52;;;14.50;99.90;;;;;;5091611;28;20024;-60
2022/10/25 07:16:29;;;;;;;4.25;1.67;;;14.70;99.90;;;;;;5091808;28;20077;-60
2022/10/25 07:19:00;;;;;;;5.53;1.65;;;14.70;99.90;;;;;;5091792;28;20032;-59
2022/10/25 07:21:26;;;;;;;5.50;1.63;;;14.80;99.90;;;;;;5089092;28;20032;-59
2022/10/25 07:23:53;;;;;;;5.13;1.50;;;15.00;99.90;;;;;;5091684;28;20024;-59
2022/10/25 07:26:24;;;;;;;4.03;1.60;;;15.00;99.90;;;;;;5091522;28;20028;-60
2022/10/25 07:28:53;;;;;;;3.70;1.63;;;15.20;99.90;;;;;;5089595;28;20055;-60
2022/10/25 07:31:24;;;;;;;3.97;1.67;;;15.20;99.90;;;;;;5089841;28;20038;-59
2022/10/25 07:33:52;;;;;;;6.70;2.30;;;15.20;99.90;;;;;;5088927;28;20017;-63
2022/10/25 07:36:18;;;;;;;4.65;1.98;;;15.50;99.90;;;;;;5090399;28;20066;-61
2022/10/25 07:38:44;;;;;;;5.53;1.80;;;15.60;99.90;;;;;;5090830;28;20024;-61
2022/10/25 07:41:11;;;;;;;9.10;2.08;;;15.40;99.90;;;;;;5091226;28;20029;-62
2022/10/25 07:43:37;;;;;;;7.40;2.15;;;15.50;99.90;;;;;;5090163;28;20043;-61
2022/10/25 07:46:05;;;;;;;5.18;1.98;;;15.70;99.90;;;;;;5088148;28;20079;-61
2022/10/25 07:48:32;;;;;;;4.93;1.80;;;15.70;99.90;;;;;;5091348;28;20024;-62
2022/10/25 07:51:05;;;;;;;5.10;1.98;;;15.70;99.90;;;;;;5091258;28;20112;-61
2022/10/25 07:53:31;;;;;;;5.65;1.92;;;15.90;99.90;;;;;;5089150;28;20106;-61
2022/10/25 07:55:57;;;;;;;6.95;2.28;;;16.00;99.90;;;;;;5091217;28;20034;-61
2022/10/25 07:58:22;;;;;;;7.63;3.25;;;16.00;99.90;;;;;;5091193;28;20449;-61
2022/10/25 08:00:48;;;;;;;5.45;2.42;;;16.10;99.90;;;;;;5091037;28;20024;-61
2022/10/25 08:03:16;;;;;;;5.63;2.38;;;16.20;99.90;;;;;;5091025;28;20017;-62
2022/10/25 08:05:46;;;;;;;6.07;3.15;;;16.20;99.90;;;;;;5091164;28;20035;-62
2022/10/25 08:08:13;;;;;;;4.43;1.67;;;16.30;99.90;;;;;;5090501;28;20024;-62
2022/10/25 08:10:41;;;;;;;5.57;1.80;;;16.40;99.90;;;;;;5090985;28;20095;-61
2022/10/25 08:13:07;;;;;;;4.20;2.63;;;16.60;99.90;;;;;;5087886;28;20521;-60
2022/10/25 08:15:35;;;;;;;8.20;2.95;;;16.80;99.90;;;;;;5091296;28;20024;-61
2022/10/25 08:18:02;;;;;;;7.07;3.03;;;16.90;99.90;;;;;;5091142;28;20036;-60
2022/10/25 08:20:28;;;;;;;8.27;1.70;;;17.00;99.90;;;;;;5090890;28;20024;-61
2022/10/25 08:22:58;;;;;;;4.75;1.60;;;17.10;99.90;;;;;;5091126;28;20095;-60
2022/10/25 08:25:25;;;;;;;9.13;3.38;;;17.30;99.90;;;;;;5090895;28;20027;-60
2022/10/25 08:27:51;;;;;;;4.65;2.55;;;17.50;99.90;;;;;;5090463;28;20031;-61
2022/10/25 08:30:16;;;;;;;3.72;1.60;;;17.80;99.90;;;;;;5090899;28;20424;-60
2022/10/25 08:32:42;;;;;;;5.85;1.85;;;17.90;99.90;;;;;;5091024;28;20039;-61
2022/10/25 08:35:08;;;;;;;6.38;2.50;;;18.60;99.90;;;;;;5090491;28;20486;-61
2022/10/25 08:37:34;;;;;;;4.03;1.75;;;19.00;99.90;;;;;;5090821;28;20028;-60
2022/10/25 08:40:00;;;;;;;8.88;4.05;;;20.20;99.90;;;;;;5090464;28;20043;-60
2022/10/25 08:42:47;;;;;;;5.20;1.80;;;20.80;99.90;;;;;;5088547;28;20036;-60
2022/10/25 08:45:38;;;;;;;7.32;2.97;;;20.80;99.90;;;;;;5091573;28;20017;-60
2022/10/25 08:48:11;;;;;;;4.20;1.80;;;21.20;99.90;;;;;;5091430;28;20040;-62
2022/10/25 08:50:43;;;;;;;7.22;3.60;;;20.90;99.90;;;;;;5090735;28;20128;-59
2022/10/25 08:53:19;;;;;;;6.10;2.65;;;20.40;99.90;;;;;;5091516;28;20036;-59
2022/10/25 08:55:46;;;;;;;3.83;1.70;;;19.70;99.90;;;;;;5091574;28;20024;-61
2022/10/25 08:58:45;;;;;;;6.60;2.83;;;19.50;99.90;;;;;;5091561;28;20032;-59
2022/10/25 09:01:25;;;;;;;4.03;1.83;;;19.70;99.90;;;;;;5091348;28;20047;-60
2022/10/25 09:03:51;;;;;;;5.95;2.55;;;19.80;99.90;;;;;;5091288;28;20027;-60
2022/10/25 09:06:47;;;;;;;6.63;2.10;;;19.80;99.90;;;;;;5090786;28;20024;-61
2022/10/25 09:09:38;;;;;;;5.80;2.45;;;20.00;99.90;;;;;;5091202;28;20115;-60
2022/10/25 09:12:32;;;;;;;4.95;2.67;;;19.90;99.90;;;;;;5091356;28;20514;-61
2022/10/25 09:15:31;;;;;;;4.93;2.38;;;20.20;99.90;;;;;;5091452;28;20111;-60
2022/10/25 09:18:01;;;;;;;8.63;2.35;;;20.20;99.90;;;;;;5092605;28;20028;-61
2022/10/25 09:20:40;;;;;;;5.28;1.90;;;20.00;99.90;;;;;;5095011;28;20016;-62
2022/10/25 09:23:08;;;;;;;8.90;2.15;;;19.80;99.90;;;;;;5095150;28;20399;-62
2022/10/25 09:25:49;;;;;;;8.18;2.38;;;19.60;99.90;;;;;;5094553;28;20502;-61
2022/10/25 09:28:23;;;;;;;3.78;1.90;;;19.90;99.90;;;;;;5095313;28;20059;-61
2022/10/25 09:30:51;;;;;;;6.07;2.20;;;19.90;99.90;;;;;;5095194;28;20099;-61
2022/10/25 09:33:22;;;;;;;6.30;2.03;;;20.00;99.90;;;;;;5094677;28;20116;-62
2022/10/25 09:35:53;;;;;;;6.07;2.15;;;20.00;99.90;;;;;;5094246;28;20012;-62
2022/10/25 09:38:26;;;;;;;7.70;1.90;;;20.00;99.90;;;;;;5095373;28;20055;-61
2022/10/25 09:41:00;;;;;;;4.77;1.97;;;19.90;99.90;;;;;;5094055;28;20119;-62
2022/10/25 09:43:33;;;;;;;3.15;1.60;;;19.90;99.90;;;;;;5093444;28;20024;-62
2022/10/25 09:46:04;;;;;;;4.60;1.67;;;19.80;99.90;;;;;;5094723;28;20032;-62
2022/10/25 09:48:48;;;;;;;5.78;1.80;;;19.80;99.90;;;;;;5094577;28;20024;-61
2022/10/25 09:51:27;;;;;;;4.90;1.88;;;19.90;99.90;;;;;;5094312;28;20023;-61
2022/10/25 09:53:54;;;;;;;2.88;1.60;;;20.00;99.90;;;;;;5094450;28;20032;-61
2022/10/25 09:56:20;;;;;;;5.97;1.50;;;20.10;99.90;;;;;;5094160;28;20031;-61
2022/10/25 09:58:46;;;;;;;4.43;1.60;;;20.20;99.90;;;;;;5093605;28;20119;-59
2022/10/25 10:01:17;;;;;;;4.72;1.40;;;20.30;99.90;;;;;;5093624;28;20020;-60
2022/10/25 10:03:43;;;;;;;3.17;1.58;;;20.20;99.90;;;;;;5093881;28;20420;-59
2022/10/25 10:06:20;;;;;;;5.35;1.70;;;20.40;99.90;;;;;;5093389;28;20039;-60
2022/10/25 10:09:09;;;;;;;6.72;1.63;;;20.50;99.90;;;;;;5093427;28;20425;-61
2022/10/25 10:11:35;;;;;;;3.95;1.63;;;20.60;99.90;;;;;;5093219;28;20023;-61
2022/10/25 10:14:07;;;;;;;4.45;1.60;;;20.60;99.90;;;;;;5093962;28;20047;-59
2022/10/25 10:16:55;;;;;;;2.95;1.60;;;20.70;99.90;;;;;;5092165;28;20022;-61
2022/10/25 10:19:28;;;;;;;5.90;1.70;;;20.90;99.90;;;;;;5093583;28;20024;-61
2022/10/25 10:21:57;;;;;;;;;;;21.00;99.90;;;;;;5093920;28;20024;-60
2022/10/25 10:24:29;;;;;;;4.05;1.70;;;21.30;99.90;;;;;;5093353;28;19911;-60
2022/10/25 10:26:58;;;;;;;7.90;1.80;;;21.70;99.90;;;;;;5093866;28;20643;-61
2022/10/25 10:29:26;;;;;;;3.22;1.60;;;21.90;99.90;;;;;;5092982;28;20024;-61
2022/10/25 10:32:01;;;;;;;5.50;1.75;;;22.00;99.90;;;;;;5093936;28;20032;-61
2022/10/25 10:34:50;;;;;;;6.70;1.80;;;21.90;99.90;;;;;;5093359;28;20073;-61
2022/10/25 10:37:18;;;;;;;8.57;1.77;;;21.70;99.90;;;;;;5093540;28;20032;-61
2022/10/25 10:40:02;;;;;;;4.75;2.00;;;21.70;99.90;;;;;;5093022;28;20125;-61
2022/10/25 10:42:31;;;;;;;4.15;1.88;;;21.60;99.90;;;;;;5093550;28;20028;-61
2022/10/25 10:45:08;;;;;;;7.00;1.95;;;21.50;99.90;;;;;;5093749;28;20500;-61
2022/10/25 10:47:48;;;;;;;4.88;1.80;;;21.50;99.90;;;;;;5093527;28;20103;-61
2022/10/25 10:50:20;;;;;;;4.15;1.70;;;21.60;99.90;;;;;;5093460;28;20078;-61
2022/10/25 10:52:47;;;;;;;4.93;2.00;;;21.50;99.90;;;;;;5092869;28;20229;-61
2022/10/25 10:55:28;;;;;;;6.75;1.98;;;21.50;99.90;;;;;;5093286;28;20021;-62
2022/10/25 10:57:55;;;;;;;7.30;2.00;;;21.70;99.90;;;;;;5093204;28;20405;-61
2022/10/25 11:00:23;;;;;;;6.30;1.90;;;21.80;99.90;;;;;;5093295;28;20024;-61
2022/10/25 11:02:50;;;;;;;4.38;1.70;;;22.10;99.90;;;;;;5093136;28;20031;-61
2022/10/25 11:05:26;;;;;;;5.03;1.63;;;22.20;99.90;;;;;;5093057;28;20472;-61
2022/10/25 11:08:01;;;;;;;6.13;1.90;;;22.30;99.90;;;;;;5092675;28;20034;-61
2022/10/25 11:10:37;;;;;;;7.05;1.80;;;22.20;99.90;;;;;;5092790;28;20032;-61
2022/10/25 11:13:12;;;;;;;4.75;1.95;;;22.20;99.90;;;;;;5093088;28;20085;-61
2022/10/25 11:15:52;;;;;;;6.20;1.90;;;22.20;99.90;;;;;;5092926;28;20020;-61
2022/10/25 11:18:38;;;;;;;7.13;1.80;;;22.10;99.90;;;;;;5092808;28;20047;-61
2022/10/25 11:21:10;;;;;;;5.70;1.70;;;22.00;99.90;;;;;;5092435;28;20024;-61
2022/10/25 11:23:41;;;;;;;3.47;1.90;;;21.90;99.90;;;;;;5092542;28;20402;-61
2022/10/25 11:26:23;;;;;;;4.88;1.75;;;21.90;99.90;;;;;;5091901;28;20089;-61
2022/10/25 11:29:03;;;;;;;3.95;1.95;;;22.10;99.90;;;;;;5092886;28;20031;-61
2022/10/25 11:31:59;;;;;;;5.28;2.10;;;22.00;99.90;;;;;;5092441;28;20020;-60
2022/10/25 11:34:30;;;;;;;6.60;2.28;;;22.50;99.90;;;;;;5092284;28;20501;-62
2022/10/25 11:37:20;;;;;;;5.53;2.05;;;22.90;99.90;;;;;;5092175;28;20095;-62
2022/10/25 11:40:01;;;;;;;7.20;2.22;;;23.00;99.90;;;;;;5092203;28;20048;-62
2022/10/25 11:42:42;;;;;;;7.78;1.90;;;22.80;99.90;;;;;;5092312;28;20028;-61
2022/10/25 11:45:37;;;;;;;6.40;2.20;;;22.60;99.90;;;;;;5092389;28;20455;-62
2022/10/25 11:48:12;;;;;;;4.70;2.08;;;22.70;99.90;;;;;;5092486;28;20027;-62
2022/10/25 11:51:12;;;;;;;5.18;2.05;;;22.80;99.90;;;;;;5091903;28;20032;-62
2022/10/25 11:53:44;;;;;;;7.22;1.85;;;23.00;99.90;;;;;;5092007;28;20123;-62
2022/10/25 11:56:23;;;;;;;4.80;1.73;;;23.10;99.90;;;;;;5092365;28;20031;-62
2022/10/25 11:59:10;;;;;;;7.00;1.73;;;23.10;99.90;;;;;;5092158;28;20269;-61
2022/10/25 12:01:55;;;;;;;9.85;2.15;;;23.10;99.90;;;;;;5092573;28;20016;-62
2022/10/25 12:04:54;;;;;;;3.88;1.90;;;23.30;99.90;;;;;;5090828;28;20392;-62
2022/10/25 12:07:46;;;;;;;5.32;3.05;;;23.30;99.90;;;;;;5092100;28;20107;-61
2022/10/25 12:10:40;;;;;;;5.43;2.10;;;23.40;99.90;;;;;;5091697;28;20062;-62
2022/10/25 12:13:24;;;;;;;;;;;23.60;99.90;;;;;;5092433;28;20498;-61
2022/10/25 12:15:53;;;;;;;4.40;1.98;;;23.70;99.90;;;;;;5092089;28;19907;-62
2022/10/25 12:18:25;;;;;;;6.32;2.40;;;23.70;99.90;;;;;;5092326;28;20032;-61
2022/10/25 12:20:52;;;;;;;10.68;4.03;;;23.60;99.90;;;;;;5091987;28;20034;-62
2022/10/25 12:23:21;;;;;;;7.20;2.30;;;23.50;99.90;;;;;;5091978;28;20041;-61
2022/10/25 12:26:04;;;;;;;6.18;1.83;;;23.60;99.90;;;;;;5092253;28;20035;-62
2022/10/25 12:28:47;;;;;;;8.90;2.13;;;23.60;99.90;;;;;;5092314;28;20047;-61
2022/10/25 12:31:27;;;;;;;7.40;2.03;;;23.60;99.90;;;;;;5092192;28;20562;-62
2022/10/25 12:34:14;;;;;;;6.95;2.30;;;23.60;99.90;;;;;;5091251;28;20035;-61
2022/10/25 12:36:52;;;;;;;6.28;2.35;;;23.60;99.90;;;;;;5091807;28;20024;-62
2022/10/25 12:39:20;;;;;;;6.35;2.30;;;23.70;99.90;;;;;;5091718;28;20178;-62
2022/10/25 12:41:51;;;;;;;5.00;1.92;;;23.80;99.90;;;;;;5091902;28;20052;-61
2022/10/25 12:44:35;;;;;;;5.00;2.13;;;23.70;99.90;;;;;;5091845;28;20188;-62
2022/10/25 12:47:13;;;;;;;9.25;2.38;;;23.60;99.90;;;;;;5092202;28;20028;-61
2022/10/25 12:49:56;;;;;;;8.00;2.00;;;23.50;99.90;;;;;;5090915;28;20483;-62
2022/10/25 12:52:37;;;;;;;6.40;2.00;;;23.60;99.90;;;;;;5091999;28;20089;-61
2022/10/25 12:55:39;;;;;;;5.55;2.10;;;23.60;99.90;;;;;;5095962;28;20028;-62
2022/10/25 12:58:50;;;;;;;6.97;2.00;;;23.50;99.90;;;;;;5095793;28;20024;-61
2022/10/25 13:01:37;;;;;;;7.95;2.10;;;23.60;99.90;;;;;;5095856;28;20032;-62
2022/10/25 13:04:21;;;;;;;6.65;2.17;;;23.40;99.90;;;;;;5095018;28;20105;-61
2022/10/25 13:06:49;;;;;;;7.95;1.92;;;23.20;99.90;;;;;;5095748;28;20039;-62
2022/10/25 13:09:18;;;;;;;6.25;2.25;;;23.20;99.90;;;;;;5095469;28;20020;-62